Time;durP1;ratioP1;P1;durP2;ratioP2;P2;SDS_P1;SDS_P2;PMS_P1;PMS_P2;Temp;Humidity;BMP_temperature;BMP_pressure;BME280_temperature;BME280_humidity;BME280_pressure;Samples;Min_cycle;Max_cycle;Signal;HPM_P1;HPM_P2
2024/01/05 00:01:31;;;;;;;5.50;4.00;;;;;;;-1.23;79.80;99075.60;131155;1253;106861;-78
2024/01/05 00:04:37;;;;;;;6.90;4.50;;;;;;;-1.27;80.41;99078.86;130914;1251;107374;-79
2024/01/05 00:07:42;;;;;;;7.00;4.90;;;;;;;-1.30;80.94;99086.54;130866;1256;106910;-79
2024/01/05 00:10:48;;;;;;;6.90;4.60;;;;;;;-1.30;81.33;99091.94;130924;1256;107602;-78
2024/01/05 00:13:55;;;;;;;7.80;5.00;;;;;;;-1.23;81.83;99100.67;130919;1255;108592;-80
2024/01/05 00:17:01;;;;;;;8.00;5.00;;;;;;;-1.19;82.34;99105.36;130976;1251;107192;-78
2024/01/05 00:20:08;;;;;;;8.00;4.90;;;;;;;-1.18;82.62;99112.75;131146;1256;107081;-78
2024/01/05 00:23:14;;;;;;;8.40;5.10;;;;;;;-1.17;82.89;99113.59;131022;1256;108794;-79
2024/01/05 00:26:21;;;;;;;8.10;5.50;;;;;;;-1.16;83.44;99123.46;130991;1250;107601;-79
2024/01/05 00:29:26;;;;;;;8.00;5.70;;;;;;;-1.19;84.02;99125.07;131010;1254;108656;-78
2024/01/05 00:32:32;;;;;;;8.00;5.20;;;;;;;-1.25;84.90;99127.05;130979;1255;107067;-78
2024/01/05 00:35:38;;;;;;;8.00;5.20;;;;;;;-1.28;85.09;99131.95;130922;1256;106710;-78
2024/01/05 00:38:47;;;;;;;9.10;5.40;;;;;;;-1.24;85.49;99136.94;130921;1253;108726;-79
2024/01/05 00:41:53;;;;;;;8.30;5.60;;;;;;;-1.20;85.35;99140.10;130972;1251;106664;-79
2024/01/05 00:44:58;;;;;;;9.90;5.50;;;;;;;-1.18;85.33;99145.23;130892;1255;107399;-79
2024/01/05 00:48:05;;;;;;;9.40;5.90;;;;;;;-1.14;85.68;99149.34;131197;1255;107684;-75
2024/01/05 00:51:10;;;;;;;9.60;6.20;;;;;;;-1.12;85.41;99153.73;130914;1255;106370;-79
2024/01/05 00:54:19;;;;;;;7.80;4.70;;;;;;;-1.04;85.68;99161.73;130910;1255;106639;-79
2024/01/05 00:57:25;;;;;;;8.80;5.20;;;;;;;-0.98;85.28;99162.16;130921;1254;107649;-78
2024/01/05 01:00:32;;;;;;;8.40;5.60;;;;;;;-0.89;85.30;99169.92;130947;1256;107682;-78
2024/01/05 01:03:37;;;;;;;6.30;4.70;;;;;;;-0.88;84.96;99174.06;130951;1251;107105;-78
2024/01/05 01:06:43;;;;;;;8.00;5.40;;;;;;;-0.90;84.45;99178.02;130943;1251;107767;-77
2024/01/05 01:09:48;;;;;;;7.00;4.60;;;;;;;-0.94;84.26;99182.19;130881;1255;108656;-79
2024/01/05 01:12:54;;;;;;;6.40;4.40;;;;;;;-1.04;83.57;99185.98;131130;1253;108572;-79
2024/01/05 01:16:00;;;;;;;8.10;4.70;;;;;;;-1.07;83.77;99190.55;131121;1251;107066;-78
2024/01/05 01:19:06;;;;;;;6.20;3.90;;;;;;;-1.07;83.41;99190.00;131006;1251;106839;-78
2024/01/05 01:22:12;;;;;;;7.30;4.20;;;;;;;-1.03;83.13;99189.04;131147;1253;107569;-79
2024/01/05 01:25:18;;;;;;;6.60;4.20;;;;;;;-1.04;82.05;99189.98;131181;1251;108656;-79
2024/01/05 01:28:24;;;;;;;5.30;4.20;;;;;;;-1.07;82.06;99187.41;130896;1256;106227;-78
2024/01/05 01:31:31;;;;;;;6.60;4.50;;;;;;;-1.06;82.51;99185.41;130899;1255;107573;-78
2024/01/05 01:34:36;;;;;;;8.50;5.30;;;;;;;-1.07;82.41;99188.81;130940;1255;107798;-78
2024/01/05 01:37:42;;;;;;;8.40;5.40;;;;;;;-1.09;82.17;99195.55;130883;1251;107803;-78
2024/01/05 01:40:52;;;;;;;7.70;5.00;;;;;;;-1.08;81.69;99196.23;130894;1256;106690;-79
2024/01/05 01:43:58;;;;;;;6.20;4.60;;;;;;;-1.10;81.68;99196.50;130926;1251;106720;-78
2024/01/05 01:47:04;;;;;;;13.60;9.00;;;;;;;-1.03;81.97;99200.75;130725;1255;107701;-79
2024/01/05 01:50:11;;;;;;;10.80;6.70;;;;;;;-0.97;80.92;99203.45;130920;1251;106426;-79
2024/01/05 01:53:20;;;;;;;9.60;6.30;;;;;;;-0.99;78.97;99208.66;131090;1251;109010;-79
2024/01/05 01:56:26;;;;;;;7.40;4.80;;;;;;;-1.01;77.84;99211.27;131134;1255;107630;-78
2024/01/05 01:59:32;;;;;;;6.30;4.20;;;;;;;-1.08;78.22;99210.17;130922;1256;106806;-78
2024/01/05 02:02:39;;;;;;;7.70;4.50;;;;;;;-1.15;78.33;99219.73;130980;1267;108557;-78
2024/01/05 02:05:45;;;;;;;5.90;4.30;;;;;;;-1.23;78.70;99223.02;130937;1256;106687;-78
2024/01/05 02:08:52;;;;;;;6.50;4.20;;;;;;;-1.32;78.21;99227.52;130886;1255;106497;-78
2024/01/05 02:11:57;;;;;;;5.30;3.90;;;;;;;-1.42;78.01;99237.52;130912;1256;108442;-78
2024/01/05 02:15:03;;;;;;;5.60;3.60;;;;;;;-1.45;77.88;99241.62;130886;1251;106384;-78
2024/01/05 02:18:14;;;;;;;5.50;3.70;;;;;;;-1.49;77.72;99245.68;130969;1251;105499;-78
2024/01/05 02:21:32;;;;;;;5.20;3.80;;;;;;;-1.47;77.25;99256.40;130923;1256;106328;-79
2024/01/05 02:24:39;;;;;;;5.40;2.80;;;;;;;-1.52;76.66;99259.68;130918;1251;106319;-79
2024/01/05 02:27:44;;;;;;;3.50;2.40;;;;;;;-1.58;75.31;99262.20;130888;1255;106233;-78
2024/01/05 02:30:50;;;;;;;5.30;3.50;;;;;;;-1.66;75.24;99265.46;130881;1256;106926;-78
2024/01/05 02:33:55;;;;;;;4.20;2.30;;;;;;;-1.67;76.67;99272.33;130912;1251;107587;-79
2024/01/05 02:37:01;;;;;;;4.20;2.60;;;;;;;-1.69;75.09;99277.71;130890;1251;108540;-78
2024/01/05 02:40:13;;;;;;;4.50;2.90;;;;;;;-1.75;74.94;99278.11;130911;1251;107581;-78
2024/01/05 02:43:20;;;;;;;4.00;2.80;;;;;;;-1.78;74.55;99283.33;130980;1259;106533;-78
2024/01/05 02:46:26;;;;;;;3.20;2.10;;;;;;;-1.80;75.05;99288.36;130878;1256;106603;-78
2024/01/05 02:49:32;;;;;;;4.20;2.20;;;;;;;-1.83;73.91;99303.34;130912;1256;106859;-78
2024/01/05 02:52:37;;;;;;;3.80;2.50;;;;;;;-1.85;73.83;99305.09;130853;1256;106686;-78
2024/01/05 02:55:43;;;;;;;3.50;2.30;;;;;;;-1.89;72.65;99311.03;130875;1255;107660;-79
2024/01/05 02:58:49;;;;;;;4.20;2.10;;;;;;;-1.90;72.68;99311.48;131000;1256;107601;-79
2024/01/05 03:01:54;;;;;;;3.30;2.00;;;;;;;-1.90;72.66;99306.92;130901;1256;107470;-80
2024/01/05 03:05:01;;;;;;;3.90;2.20;;;;;;;-1.90;71.83;99313.95;130931;1251;108849;-80
2024/01/05 03:08:08;;;;;;;3.00;1.60;;;;;;;-1.92;72.17;99315.23;131345;1255;105692;-80
2024/01/05 03:11:14;;;;;;;2.90;1.90;;;;;;;-1.90;71.98;99317.77;131134;1253;106623;-80
2024/01/05 03:14:21;;;;;;;3.60;2.10;;;;;;;-1.92;71.86;99311.97;131108;1251;107931;-80
2024/01/05 03:17:26;;;;;;;2.80;1.80;;;;;;;-1.92;72.36;99314.94;131150;1251;107545;-80
2024/01/05 03:20:32;;;;;;;3.00;1.90;;;;;;;-1.90;73.24;99325.27;131101;1256;107524;-80
2024/01/05 03:23:37;;;;;;;3.10;2.30;;;;;;;-1.90;72.70;99324.73;131110;1254;106340;-80
2024/01/05 03:26:46;;;;;;;3.80;2.50;;;;;;;-1.90;71.45;99330.13;131126;1255;108545;-79
2024/01/05 03:29:52;;;;;;;57.20;21.10;;;;;;;-1.88;73.24;99332.79;131085;1251;107736;-80
2024/01/05 03:32:57;;;;;;;30.70;13.90;;;;;;;-1.82;70.67;99335.56;131153;1256;108322;-80
2024/01/05 03:36:04;;;;;;;7.60;3.20;;;;;;;-1.82;69.99;99350.00;130905;1256;272039;-81
2024/01/05 03:39:10;;;;;;;4.80;2.60;;;;;;;-1.81;70.96;99347.01;130993;1258;108119;-80
2024/01/05 03:42:16;;;;;;;10.00;3.70;;;;;;;-1.79;70.91;99348.44;131098;1255;106559;-79
2024/01/05 03:45:22;;;;;;;4.10;2.20;;;;;;;-1.76;70.96;99346.18;131094;1251;108606;-80
2024/01/05 03:48:28;;;;;;;17.90;8.80;;;;;;;-1.74;71.67;99347.63;131175;1256;107723;-80
2024/01/05 03:51:33;;;;;;;16.10;6.60;;;;;;;-1.72;71.32;99359.02;130941;1257;107593;-80
2024/01/05 03:54:39;;;;;;;462.30;155.30;;;;;;;-1.70;72.50;99355.55;131068;1251;106302;-80
2024/01/05 03:57:45;;;;;;;153.90;41.00;;;;;;;-1.59;73.57;99353.60;131081;1256;107063;-81
2024/01/05 04:00:51;;;;;;;313.80;71.80;;;;;;;-1.49;72.91;99356.61;130896;1256;108754;-80
2024/01/05 04:03:57;;;;;;;52.80;13.80;;;;;;;-1.46;72.30;99363.73;131171;1256;108674;-80
2024/01/05 04:07:03;;;;;;;464.00;119.80;;;;;;;-1.44;72.54;99361.91;131086;1256;106590;-80
2024/01/05 04:10:09;;;;;;;101.30;23.90;;;;;;;-1.41;72.65;99359.45;131111;1255;107613;-80
2024/01/05 04:13:15;;;;;;;267.90;66.40;;;;;;;-1.37;73.03;99355.38;131186;1253;107576;-80
2024/01/05 04:16:21;;;;;;;129.40;36.40;;;;;;;-1.36;72.64;99354.25;131111;1256;107009;-80
2024/01/05 04:19:29;;;;;;;103.90;26.30;;;;;;;-1.34;73.41;99358.83;131161;1253;108637;-78
2024/01/05 04:22:35;;;;;;;486.50;149.60;;;;;;;-1.28;73.02;99359.14;130910;1255;108805;-81
2024/01/05 04:25:41;;;;;;;74.40;18.60;;;;;;;-1.26;72.97;99357.76;131129;1253;107785;-80
2024/01/05 04:28:46;;;;;;;670.80;237.50;;;;;;;-1.24;72.86;99366.19;131143;1251;108654;-80
2024/01/05 04:31:52;;;;;;;276.00;76.00;;;;;;;-1.15;73.83;99371.37;131106;1251;108767;-80
2024/01/05 04:34:58;;;;;;;587.00;222.30;;;;;;;-1.08;73.53;99373.86;131103;1256;106497;-80
2024/01/05 04:38:04;;;;;;;529.40;173.50;;;;;;;-0.98;73.88;99380.58;131124;1256;106572;-80
2024/01/05 04:41:10;;;;;;;154.70;39.90;;;;;;;-0.89;72.88;99387.63;131090;1251;106542;-80
2024/01/05 04:44:16;;;;;;;282.80;87.60;;;;;;;-0.89;72.57;99388.51;131132;1256;106210;-80
2024/01/05 04:47:23;;;;;;;333.80;116.40;;;;;;;-0.91;72.52;99397.90;131139;1253;107648;-80
2024/01/05 04:50:28;;;;;;;107.70;34.50;;;;;;;-0.92;71.08;99399.51;131120;1260;108000;-79
2024/01/05 04:53:34;;;;;;;335.50;117.50;;;;;;;-0.97;72.38;99404.77;131126;1253;107586;-80
2024/01/05 04:56:39;;;;;;;205.80;68.40;;;;;;;-0.92;72.67;99405.29;131084;1251;107601;-80
2024/01/05 04:59:45;;;;;;;29.30;11.30;;;;;;;-0.88;72.35;99406.27;131091;1269;107648;-80
2024/01/05 05:02:51;;;;;;;66.20;34.50;;;;;;;-0.91;70.96;99402.76;131151;1255;108675;-80
2024/01/05 05:05:56;;;;;;;73.00;38.90;;;;;;;-0.91;72.00;99402.98;131061;1256;106430;-80
2024/01/05 05:09:02;;;;;;;27.80;14.40;;;;;;;-0.86;72.45;99403.00;131061;1251;107648;-79
2024/01/05 05:12:09;;;;;;;13.20;8.00;;;;;;;-0.85;72.24;99400.43;131143;1255;107624;-79
2024/01/05 05:15:15;;;;;;;10.00;5.10;;;;;;;-0.82;72.13;99397.79;131104;1255;107458;-80
2024/01/05 05:18:20;;;;;;;6.90;4.10;;;;;;;-0.76;72.07;99396.96;130950;1252;108161;-79
2024/01/05 05:21:28;;;;;;;6.50;3.80;;;;;;;-0.71;72.06;99396.56;130856;1255;107613;-80
2024/01/05 05:24:33;;;;;;;6.40;3.30;;;;;;;-0.68;72.31;99405.11;131115;1256;106555;-81
2024/01/05 05:27:39;;;;;;;5.80;3.40;;;;;;;-0.60;72.88;99412.44;131114;1252;107702;-78
2024/01/05 05:30:45;;;;;;;9.40;5.40;;;;;;;-0.51;72.64;99414.48;131131;1256;108721;-78
2024/01/05 05:33:51;;;;;;;127.90;59.20;;;;;;;-0.48;72.33;99415.63;131115;1256;106766;-80
2024/01/05 05:36:57;;;;;;;589.60;232.00;;;;;;;-0.43;72.66;99420.37;131098;1252;106700;-80
2024/01/05 05:40:03;;;;;;;649.70;228.60;;;;;;;-0.37;72.24;99422.80;131072;1255;107606;-80
2024/01/05 05:43:08;;;;;;;1060.30;389.10;;;;;;;-0.34;72.11;99426.61;131092;1255;106531;-80
2024/01/05 05:46:15;;;;;;;1805.90;657.70;;;;;;;-0.29;72.27;99427.95;131015;1255;107745;-80
2024/01/05 05:49:20;;;;;;;1216.20;403.60;;;;;;;-0.24;72.14;99430.41;131281;1253;106818;-79
2024/01/05 05:52:26;;;;;;;1019.90;313.60;;;;;;;-0.22;71.75;99431.55;130870;1256;108645;-80
2024/01/05 05:55:32;;;;;;;713.10;212.30;;;;;;;-0.21;71.90;99430.73;130846;1253;107369;-80
2024/01/05 05:58:37;;;;;;;572.50;174.60;;;;;;;-0.19;71.89;99438.70;131033;1255;108713;-80
2024/01/05 06:01:43;;;;;;;829.20;336.00;;;;;;;-0.15;71.76;99447.68;131040;1256;108366;-80
2024/01/05 06:04:48;;;;;;;459.10;143.60;;;;;;;-0.13;71.69;99455.05;131159;1253;107584;-74
2024/01/05 06:07:54;;;;;;;311.90;87.00;;;;;;;-0.14;71.37;99460.55;130827;1256;108744;-75
2024/01/05 06:11:00;;;;;;;530.30;172.90;;;;;;;-0.22;71.00;99463.00;130857;1252;106266;-74
2024/01/05 06:14:06;;;;;;;458.30;135.60;;;;;;;-0.23;71.59;99465.13;130867;1253;108649;-75
2024/01/05 06:17:12;;;;;;;536.30;191.10;;;;;;;-0.20;71.40;99466.35;130873;1253;108720;-75
2024/01/05 06:20:17;;;;;;;547.00;184.90;;;;;;;-0.19;71.58;99468.37;130892;1253;107536;-75
2024/01/05 06:23:23;;;;;;;586.50;207.90;;;;;;;-0.17;71.62;99473.53;130774;1253;106903;-75
2024/01/05 06:26:30;;;;;;;571.20;211.20;;;;;;;-0.15;71.83;99482.46;130863;1255;106230;-75
2024/01/05 06:29:35;;;;;;;274.00;83.50;;;;;;;-0.14;71.70;99489.88;130882;1255;108548;-75
2024/01/05 06:32:41;;;;;;;183.00;68.50;;;;;;;-0.13;71.45;99496.46;130888;1253;107750;-74
2024/01/05 06:35:47;;;;;;;162.40;68.00;;;;;;;-0.14;71.54;99501.77;130883;1256;108054;-75
2024/01/05 06:38:53;;;;;;;120.00;53.00;;;;;;;-0.14;71.22;99507.39;131008;1255;106832;-74
2024/01/05 06:41:59;;;;;;;73.40;34.60;;;;;;;-0.18;70.97;99504.16;130701;1256;108721;-76
2024/01/05 06:45:06;;;;;;;43.00;24.80;;;;;;;-0.24;70.74;99503.69;130748;1264;109136;-76
2024/01/05 06:48:12;;;;;;;41.00;23.20;;;;;;;-0.27;71.50;99508.44;130858;1252;108454;-74
2024/01/05 06:51:18;;;;;;;29.20;16.00;;;;;;;-0.26;71.37;99509.79;130819;1253;106980;-73
2024/01/05 06:54:23;;;;;;;81.20;46.30;;;;;;;-0.24;71.58;99512.05;130822;1256;106506;-75
2024/01/05 06:57:31;;;;;;;52.60;33.90;;;;;;;-0.20;71.41;99513.02;130859;1256;105703;-75
2024/01/05 07:00:38;;;;;;;274.70;109.80;;;;;;;-0.16;71.62;99512.08;130841;1256;107634;-75
2024/01/05 07:03:43;;;;;;;455.30;158.50;;;;;;;-0.12;71.71;99511.63;130963;1256;107135;-75
2024/01/05 07:06:49;;;;;;;494.20;173.10;;;;;;;-0.08;71.78;99513.59;130855;1254;106287;-76
2024/01/05 07:09:54;;;;;;;543.60;175.30;;;;;;;-0.03;71.59;99519.07;130869;1268;107393;-75
2024/01/05 07:13:01;;;;;;;730.20;246.70;;;;;;;0.00;71.75;99518.35;130888;1253;107333;-75
2024/01/05 07:16:17;;;;;;;399.10;98.60;;;;;;;0.05;71.88;99518.33;130754;1259;107273;-75
2024/01/05 07:19:22;;;;;;;197.70;46.00;;;;;;;0.10;71.60;99513.29;130944;1255;106463;-74
2024/01/05 07:22:28;;;;;;;700.20;241.60;;;;;;;0.12;71.91;99510.55;130885;1253;107636;-75
2024/01/05 07:25:34;;;;;;;380.20;101.20;;;;;;;0.13;71.52;99511.16;130777;1253;107229;-74
2024/01/05 07:28:39;;;;;;;521.50;181.80;;;;;;;0.12;71.68;99507.34;130861;1251;106270;-72
2024/01/05 07:31:45;;;;;;;589.80;198.60;;;;;;;0.19;71.84;99509.02;130856;1256;107124;-75
2024/01/05 07:34:51;;;;;;;442.60;127.50;;;;;;;0.21;71.64;99508.83;130935;1256;107915;-75
2024/01/05 07:37:57;;;;;;;458.50;133.00;;;;;;;0.23;71.71;99504.52;130873;1261;106751;-75
2024/01/05 07:41:03;;;;;;;606.80;181.80;;;;;;;0.27;71.81;99506.21;130849;1256;106826;-76
2024/01/05 07:44:08;;;;;;;808.20;266.10;;;;;;;0.29;71.72;99511.14;130848;1256;107609;-76
2024/01/05 07:47:15;;;;;;;458.90;120.60;;;;;;;0.31;71.71;99508.54;130865;1253;106803;-75
2024/01/05 07:50:20;;;;;;;323.40;80.60;;;;;;;0.34;71.89;99507.05;130907;1256;106418;-75
2024/01/05 07:53:26;;;;;;;576.50;212.80;;;;;;;0.39;71.73;99500.75;130848;1257;108616;-75
2024/01/05 07:56:36;;;;;;;764.30;228.20;;;;;;;0.45;71.76;99495.81;130835;1253;106374;-75
2024/01/05 07:59:42;;;;;;;604.10;187.70;;;;;;;0.51;71.64;99494.73;130873;1253;106512;-75
2024/01/05 08:02:47;;;;;;;157.90;39.20;;;;;;;0.54;71.23;99495.52;130860;1251;108034;-75
2024/01/05 08:05:53;;;;;;;418.30;183.70;;;;;;;0.46;71.05;99499.27;130900;1253;107174;-75
2024/01/05 08:08:58;;;;;;;376.10;159.10;;;;;;;0.46;70.56;99499.29;130893;1253;106870;-75
2024/01/05 08:12:05;;;;;;;52.00;19.50;;;;;;;0.40;68.69;99501.98;130852;1254;107107;-75
2024/01/05 08:15:12;;;;;;;49.60;20.80;;;;;;;0.33;70.16;99504.21;131031;1256;107690;-75
2024/01/05 08:18:20;;;;;;;48.10;23.00;;;;;;;0.37;70.69;99506.20;130983;1257;106481;-74
2024/01/05 08:21:25;;;;;;;29.00;14.00;;;;;;;0.48;70.77;99504.73;130859;1256;108556;-73
2024/01/05 08:24:31;;;;;;;21.90;10.70;;;;;;;0.57;70.98;99507.79;130801;1261;108718;-76
2024/01/05 08:27:37;;;;;;;26.30;14.60;;;;;;;0.63;71.01;99518.19;130773;1256;108736;-75
2024/01/05 08:30:43;;;;;;;11.00;6.10;;;;;;;0.68;71.01;99527.45;130818;1256;106576;-76
2024/01/05 08:33:49;;;;;;;9.10;4.90;;;;;;;0.73;71.06;99533.59;130934;1253;107678;-76
2024/01/05 08:36:55;;;;;;;9.50;6.50;;;;;;;0.72;70.83;99536.65;130825;1255;107639;-77
2024/01/05 08:40:01;;;;;;;10.90;5.80;;;;;;;0.73;70.94;99541.98;130858;1256;108707;-76
2024/01/05 08:43:09;;;;;;;10.40;5.60;;;;;;;0.78;70.90;99543.56;130858;1256;108576;-76
2024/01/05 08:46:15;;;;;;;31.10;16.00;;;;;;;0.77;70.51;99550.27;130786;1256;106848;-75
2024/01/05 08:49:21;;;;;;;23.40;9.60;;;;;;;0.75;70.64;99551.48;130936;1256;109065;-76
2024/01/05 08:52:27;;;;;;;14.70;6.80;;;;;;;0.71;70.00;99553.49;130951;1250;106323;-75
2024/01/05 08:55:32;;;;;;;11.10;5.60;;;;;;;0.61;69.39;99555.27;131023;1256;109179;-75
2024/01/05 08:58:38;;;;;;;9.30;4.70;;;;;;;0.54;70.00;99559.25;130969;1253;106319;-75
2024/01/05 09:01:44;;;;;;;9.20;4.30;;;;;;;0.50;69.54;99561.60;130963;1257;108642;-76
2024/01/05 09:04:50;;;;;;;7.30;3.70;;;;;;;0.51;70.44;99561.70;130939;1255;106145;-75
2024/01/05 09:07:55;;;;;;;8.90;4.80;;;;;;;0.52;69.74;99564.30;130970;1251;107676;-75
2024/01/05 09:11:02;;;;;;;6.80;3.60;;;;;;;0.45;68.99;99567.08;131005;1265;108297;-76
2024/01/05 09:14:07;;;;;;;6.80;3.60;;;;;;;0.41;67.90;99556.98;130997;1257;108120;-74
2024/01/05 09:17:14;;;;;;;9.60;4.70;;;;;;;0.35;66.90;99554.42;130999;1254;107518;-74
2024/01/05 09:20:20;;;;;;;9.60;5.00;;;;;;;0.36;68.70;99556.61;131075;1260;106255;-74
2024/01/05 09:23:25;;;;;;;12.90;6.70;;;;;;;0.49;68.43;99555.63;130998;1250;106888;-75
2024/01/05 09:26:31;;;;;;;13.80;7.00;;;;;;;0.52;67.76;99553.40;130990;1256;106279;-76
2024/01/05 09:29:37;;;;;;;9.60;4.90;;;;;;;0.51;67.20;99550.67;130994;1251;108105;-76
2024/01/05 09:32:43;;;;;;;7.00;4.00;;;;;;;0.49;67.19;99553.48;131048;1263;108633;-75
2024/01/05 09:35:50;;;;;;;7.10;3.80;;;;;;;0.47;66.54;99554.85;130918;1256;107807;-75
2024/01/05 09:38:55;;;;;;;6.70;3.50;;;;;;;0.41;66.06;99558.93;130896;1256;109091;-75
2024/01/05 09:42:01;;;;;;;20.10;9.50;;;;;;;0.42;67.20;99559.22;130849;1257;108384;-75
2024/01/05 09:45:11;;;;;;;6.90;3.80;;;;;;;0.47;66.01;99562.04;130907;1257;107930;-75
2024/01/05 09:48:22;;;;;;;7.40;3.30;;;;;;;0.54;67.23;99568.55;130959;1255;106481;-75
2024/01/05 09:51:30;;;;;;;6.10;3.00;;;;;;;0.70;67.13;99583.00;130949;1251;106470;-75
2024/01/05 09:54:40;;;;;;;5.90;3.20;;;;;;;0.74;65.43;99591.84;130852;1256;108636;-75
2024/01/05 09:57:51;;;;;;;8.50;4.20;;;;;;;0.67;65.25;99596.15;130908;1256;107110;-73
2024/01/05 10:01:01;;;;;;;10.80;7.50;;;;;;;0.68;66.41;99595.90;130907;1252;107703;-73
2024/01/05 10:04:09;;;;;;;20.30;14.90;;;;;;;0.78;67.03;99595.73;130947;1257;108608;-73
2024/01/05 10:07:18;;;;;;;10.30;6.40;;;;;;;0.91;67.09;99602.89;130888;1256;108739;-76
2024/01/05 10:10:48;;;;;;;9.00;5.60;;;;;;;0.97;66.90;99600.70;130850;1256;108240;-73
2024/01/05 10:13:57;;;;;;;7.30;3.90;;;;;;;1.03;67.08;99595.94;130959;1256;106816;-77
2024/01/05 10:17:19;;;;;;;11.00;6.30;;;;;;;1.17;67.46;99597.94;130870;1256;106198;-75
2024/01/05 10:20:28;;;;;;;14.90;10.50;;;;;;;1.29;67.34;99596.90;130937;1251;106804;-74
2024/01/05 10:23:41;;;;;;;11.20;5.90;;;;;;;1.39;67.47;99604.94;130851;1256;108603;-76
2024/01/05 10:26:46;;;;;;;8.20;4.50;;;;;;;1.49;67.42;99602.44;130914;1258;108621;-76
2024/01/05 10:29:58;;;;;;;6.50;3.80;;;;;;;1.59;67.42;99602.80;130975;1256;106656;-73
2024/01/05 10:33:09;;;;;;;11.10;5.00;;;;;;;1.66;67.56;99603.48;130951;1255;108673;-74
2024/01/05 10:36:15;;;;;;;12.20;6.30;;;;;;;1.76;67.55;99597.00;131073;1256;107818;-74
2024/01/05 10:39:23;;;;;;;13.50;8.40;;;;;;;1.84;67.25;99589.91;130946;1263;108196;-74
2024/01/05 10:42:29;;;;;;;10.30;5.70;;;;;;;1.92;67.19;99584.73;131101;1254;106831;-74
2024/01/05 10:45:36;;;;;;;7.20;4.00;;;;;;;1.98;67.19;99583.23;131052;1265;108720;-74
2024/01/05 10:48:43;;;;;;;17.50;8.20;;;;;;;2.06;66.69;99577.02;130969;1260;109616;-74
2024/01/05 10:51:49;;;;;;;11.10;5.50;;;;;;;2.11;66.80;99578.92;131040;1263;107643;-76
2024/01/05 10:54:55;;;;;;;9.50;5.00;;;;;;;2.18;66.60;99577.41;131240;1256;107457;-75
2024/01/05 10:58:00;;;;;;;12.50;6.10;;;;;;;2.22;66.59;99574.40;131007;1256;106359;-75
2024/01/05 11:01:08;;;;;;;13.40;6.60;;;;;;;2.33;66.58;99577.62;130983;1257;108678;-74
2024/01/05 11:04:17;;;;;;;12.30;6.00;;;;;;;2.45;66.74;99572.34;131080;1257;106643;-74
2024/01/05 11:07:24;;;;;;;13.70;6.60;;;;;;;2.51;66.26;99568.52;131069;1251;107711;-74
2024/01/05 11:10:44;;;;;;;23.90;16.90;;;;;;;2.43;65.25;99572.64;130809;1256;108500;-74
2024/01/05 11:14:12;;;;;;;22.00;11.90;;;;;;;2.32;66.10;99572.94;131033;1257;106867;-74
2024/01/05 11:17:48;;;;;;;13.60;6.80;;;;;;;2.35;66.64;99568.15;131032;1256;108665;-75
2024/01/05 11:21:09;;;;;;;13.50;6.90;;;;;;;2.38;66.23;99565.83;131116;1257;106299;-75
2024/01/05 11:24:17;;;;;;;13.40;6.90;;;;;;;2.41;66.29;99555.98;131003;1255;107724;-75
2024/01/05 11:27:30;;;;;;;18.80;10.10;;;;;;;2.48;66.04;99555.23;131144;1251;107683;-74
2024/01/05 11:30:45;;;;;;;13.40;7.50;;;;;;;2.55;66.12;99555.23;130964;1255;107730;-74
2024/01/05 11:33:51;;;;;;;21.70;11.40;;;;;;;2.61;66.23;99563.40;131002;1256;107737;-75
2024/01/05 11:37:00;;;;;;;16.80;8.50;;;;;;;2.65;66.12;99572.35;130906;1257;108640;-76
2024/01/05 11:40:26;;;;;;;15.40;7.00;;;;;;;2.71;65.96;99570.33;130891;1264;106451;-76
2024/01/05 11:43:38;;;;;;;19.30;9.40;;;;;;;2.80;65.81;99568.73;130928;1251;106162;-73
2024/01/05 11:46:54;;;;;;;18.00;10.20;;;;;;;2.83;65.89;99563.39;130835;1251;106667;-73
2024/01/05 11:50:20;;;;;;;13.90;7.40;;;;;;;2.85;65.91;99558.54;130922;1257;106327;-74
2024/01/05 11:53:27;;;;;;;13.70;7.00;;;;;;;2.84;65.50;99554.96;131120;1264;107690;-76
2024/01/05 11:56:33;;;;;;;14.40;8.20;;;;;;;2.79;65.76;99552.35;131065;1260;108544;-73
2024/01/05 11:59:39;;;;;;;7.40;4.40;;;;;;;2.79;65.67;99563.77;130949;1254;106743;-74
2024/01/05 12:02:45;;;;;;;8.00;4.50;;;;;;;2.76;65.69;99565.17;130963;1257;108727;-74
2024/01/05 12:05:52;;;;;;;8.00;4.50;;;;;;;2.79;65.70;99567.10;130968;1251;107121;-74
2024/01/05 12:08:57;;;;;;;8.40;5.00;;;;;;;2.77;65.55;99572.88;130867;1256;106614;-75
2024/01/05 12:12:19;;;;;;;30.40;14.90;;;;;;;2.73;65.72;99575.95;130966;1257;107320;-75
2024/01/05 12:15:29;;;;;;;201.00;68.10;;;;;;;2.71;65.47;99578.07;130933;1257;107437;-74
2024/01/05 12:18:42;;;;;;;45.30;16.90;;;;;;;2.67;65.57;99569.77;130897;1264;106529;-73
2024/01/05 12:21:52;;;;;;;21.70;10.50;;;;;;;2.64;65.62;99566.65;130949;1251;107868;-74
2024/01/05 12:24:59;;;;;;;17.90;8.90;;;;;;;2.63;65.48;99564.48;131058;1268;106277;-74
2024/01/05 12:28:07;;;;;;;14.50;7.70;;;;;;;2.59;65.78;99571.13;130970;1257;106311;-75
2024/01/05 12:31:13;;;;;;;14.10;6.90;;;;;;;2.56;65.88;99570.45;131923;1251;106621;-73
2024/01/05 12:34:19;;;;;;;11.50;6.00;;;;;;;2.53;65.54;99568.17;130930;1251;106683;-73
2024/01/05 12:37:26;;;;;;;15.10;7.00;;;;;;;2.51;65.55;99561.33;130841;1265;107841;-77
2024/01/05 12:40:35;;;;;;;12.10;5.50;;;;;;;2.48;65.59;99562.99;130624;1251;107537;-74
2024/01/05 12:43:46;;;;;;;10.20;5.60;;;;;;;2.45;65.66;99560.59;130880;1255;106274;-74
2024/01/05 12:46:52;;;;;;;11.50;6.10;;;;;;;2.43;65.43;99564.20;130703;1257;108630;-74
2024/01/05 12:49:58;;;;;;;10.30;6.30;;;;;;;2.43;65.51;99565.68;130955;1256;108683;-74
2024/01/05 12:53:20;;;;;;;11.30;6.00;;;;;;;2.41;65.36;99563.86;130916;1257;106186;-74
2024/01/05 12:56:26;;;;;;;12.10;6.40;;;;;;;2.40;65.45;99562.23;130699;1252;109495;-75
2024/01/05 12:59:35;;;;;;;13.40;6.70;;;;;;;2.39;65.55;99562.41;130906;1251;106473;-75
2024/01/05 13:02:41;;;;;;;9.80;6.10;;;;;;;2.38;65.50;99564.46;131032;1251;108690;-75
2024/01/05 13:05:48;;;;;;;8.70;5.60;;;;;;;2.36;65.75;99558.65;130970;1251;108271;-75
2024/01/05 13:08:55;;;;;;;9.70;5.60;;;;;;;2.37;65.43;99562.61;131047;1257;106190;-76
2024/01/05 13:12:01;;;;;;;366.20;110.60;;;;;;;2.39;65.41;99571.74;130955;1257;106638;-75
2024/01/05 13:15:09;;;;;;;1124.80;351.80;;;;;;;2.39;65.33;99576.11;131062;1256;108584;-76
2024/01/05 13:18:18;;;;;;;281.30;67.70;;;;;;;2.37;65.31;99578.18;131030;1257;106379;-76
2024/01/05 13:21:24;;;;;;;75.20;21.90;;;;;;;2.43;65.41;99572.67;131009;1257;106980;-75
2024/01/05 13:24:31;;;;;;;256.00;74.50;;;;;;;2.47;65.39;99569.05;130851;1256;107771;-74
2024/01/05 13:27:38;;;;;;;103.50;32.10;;;;;;;2.49;65.27;99567.52;130882;1257;107234;-74
2024/01/05 13:30:44;;;;;;;36.10;12.30;;;;;;;2.50;65.17;99561.44;130918;1251;108608;-74
2024/01/05 13:33:50;;;;;;;20.90;8.60;;;;;;;2.49;65.20;99559.23;130702;1251;107780;-75
2024/01/05 13:37:00;;;;;;;15.70;6.40;;;;;;;2.47;65.35;99567.25;130965;1255;107751;-74
2024/01/05 13:40:07;;;;;;;13.60;5.90;;;;;;;2.42;65.33;99566.95;130943;1251;106836;-73
2024/01/05 13:43:12;;;;;;;10.20;5.30;;;;;;;2.36;65.29;99564.39;130856;1251;108737;-73
2024/01/05 13:46:18;;;;;;;8.20;4.80;;;;;;;2.29;65.33;99566.84;130887;1251;108645;-73
2024/01/05 13:49:23;;;;;;;10.90;5.50;;;;;;;2.22;65.41;99566.92;130971;1251;107730;-73
2024/01/05 13:52:29;;;;;;;8.90;4.80;;;;;;;2.16;65.65;99566.83;130914;1251;106664;-73
2024/01/05 13:55:35;;;;;;;10.20;5.20;;;;;;;2.09;65.48;99561.52;130931;1257;107995;-73
2024/01/05 13:58:41;;;;;;;9.60;5.20;;;;;;;2.05;65.49;99557.85;130899;1255;108488;-73
2024/01/05 14:01:46;;;;;;;8.20;4.60;;;;;;;1.98;65.66;99560.11;130912;1257;107735;-74
2024/01/05 14:04:53;;;;;;;10.00;5.60;;;;;;;1.96;65.70;99557.98;131059;1251;108635;-74
2024/01/05 14:08:00;;;;;;;12.50;7.50;;;;;;;1.93;65.70;99559.98;131363;1257;106307;-75
2024/01/05 14:11:14;;;;;;;9.80;6.00;;;;;;;1.89;65.74;99562.35;131333;1254;108695;-74